createdAt,value
2024-03-02T00:02:13.588Z,49.20
2024-03-02T00:05:23.924Z,50.07
2024-03-02T00:08:27.475Z,43.60
2024-03-02T00:11:30.351Z,39.80
2024-03-02T00:14:33.276Z,42.75
2024-03-02T00:17:36.061Z,49.28
2024-03-02T00:20:38.809Z,50.90
2024-03-02T00:23:41.681Z,53.15
2024-03-02T00:26:46.726Z,46.33
2024-03-02T00:29:49.504Z,53.05
2024-03-02T00:32:54.565Z,49.23
2024-03-02T00:35:57.868Z,42.47
2024-03-02T00:39:00.807Z,44.47
2024-03-02T00:42:03.856Z,37.75
2024-03-02T00:45:09.406Z,40.50
2024-03-02T00:48:12.228Z,43.72
2024-03-02T00:51:14.949Z,47.37
2024-03-02T00:54:21.771Z,42.53
2024-03-02T00:57:27.320Z,41.08
2024-03-02T01:00:30.132Z,37.28
2024-03-02T01:03:33.910Z,37.42
2024-03-02T01:06:37.453Z,35.30
2024-03-02T01:09:40.284Z,36.05
2024-03-02T01:12:43.027Z,34.90
2024-03-02T01:15:45.829Z,33.72
2024-03-02T01:18:49.209Z,34.90
2024-03-02T01:21:52.259Z,36.67
2024-03-02T01:24:55.570Z,37.10
2024-03-02T01:27:58.286Z,35.53
2024-03-02T01:31:01.143Z,36.92
2024-03-02T01:34:04.227Z,38.15
2024-03-02T01:37:07.460Z,37.60
2024-03-02T01:40:11.270Z,38.92
2024-03-02T01:43:14.069Z,39.90
2024-03-02T01:46:16.885Z,42.30
2024-03-02T01:49:20.066Z,39.47
2024-03-02T01:52:22.831Z,39.47
2024-03-02T01:55:25.952Z,41.72
2024-03-02T01:58:29.126Z,38.70
2024-03-02T02:01:32.447Z,43.20
2024-03-02T02:04:35.220Z,43.15
2024-03-02T02:07:38.519Z,38.43
2024-03-02T02:10:41.399Z,37.63
2024-03-02T02:13:44.189Z,34.80
2024-03-02T02:16:47.233Z,35.72
2024-03-02T02:19:49.989Z,37.92
2024-03-02T02:23:03.891Z,37.90
2024-03-02T02:26:06.769Z,41.35
2024-03-02T02:29:09.423Z,37.08
2024-03-02T02:32:12.183Z,37.85
2024-03-02T02:35:15.205Z,35.33
2024-03-02T02:38:17.981Z,41.30
2024-03-02T02:41:20.763Z,38.03
2024-03-02T02:44:23.398Z,35.90
2024-03-02T02:47:27.540Z,36.25
2024-03-02T02:50:30.376Z,37.88
2024-03-02T02:53:33.007Z,43.43
2024-03-02T02:56:35.673Z,37.17
2024-03-02T02:59:38.424Z,38.42
2024-03-02T03:02:45.107Z,37.67
2024-03-02T03:05:47.851Z,40.55
2024-03-02T03:08:50.706Z,39.00
2024-03-02T03:11:53.446Z,36.33
2024-03-02T03:14:56.610Z,42.25
2024-03-02T03:17:59.371Z,41.50
2024-03-02T03:21:02.171Z,44.85
2024-03-02T03:24:05.273Z,39.17
2024-03-02T03:27:08.280Z,37.88
2024-03-02T03:30:11.630Z,39.25
2024-03-02T03:33:14.878Z,42.10
2024-03-02T03:36:17.608Z,41.25
2024-03-02T03:39:20.301Z,40.10
2024-03-02T03:42:23.074Z,39.90
2024-03-02T03:45:27.290Z,43.08
2024-03-02T03:48:32.130Z,39.63
2024-03-02T03:51:35.355Z,36.58
2024-03-02T03:54:39.771Z,38.20
2024-03-02T03:57:45.544Z,44.20
2024-03-02T04:00:48.324Z,39.33
2024-03-02T04:03:51.093Z,41.85
2024-03-02T04:06:53.807Z,37.90
2024-03-02T04:09:56.720Z,41.27
2024-03-02T04:12:59.489Z,42.17
2024-03-02T04:16:02.275Z,41.92
2024-03-02T04:19:05.334Z,41.45
2024-03-02T04:22:15.417Z,38.95
2024-03-02T04:25:24.130Z,46.40
2024-03-02T04:28:26.850Z,41.42
2024-03-02T04:31:30.086Z,41.78
2024-03-02T04:34:32.764Z,47.78
2024-03-02T04:37:36.062Z,40.38
2024-03-02T04:40:38.730Z,40.57
2024-03-02T04:43:41.626Z,39.65
2024-03-02T04:46:44.397Z,41.28
2024-03-02T04:49:47.529Z,45.25
2024-03-02T04:52:50.228Z,41.30
2024-03-02T04:56:25.070Z,42.07
2024-03-02T04:59:27.911Z,51.55
2024-03-02T05:02:30.526Z,42.55
2024-03-02T05:05:33.237Z,42.78
2024-03-02T05:08:35.990Z,38.55
2024-03-02T05:11:38.734Z,40.10
2024-03-02T05:14:41.428Z,39.95
2024-03-02T05:17:44.523Z,45.22
2024-03-02T05:20:47.338Z,41.20
2024-03-02T05:23:50.006Z,40.25
2024-03-02T05:26:52.661Z,44.73
2024-03-02T05:29:59.511Z,41.33
2024-03-02T05:33:02.539Z,43.67
2024-03-02T05:36:06.483Z,47.08
2024-03-02T05:39:11.444Z,45.28
2024-03-02T05:42:14.128Z,43.00
2024-03-02T05:45:17.925Z,43.47
2024-03-02T05:48:20.821Z,47.42
2024-03-02T05:51:23.527Z,43.92
2024-03-02T05:54:26.248Z,43.78
2024-03-02T05:57:40.314Z,45.90
2024-03-02T06:00:43.697Z,42.67
2024-03-02T06:03:46.484Z,43.53
2024-03-02T06:06:50.858Z,44.10
2024-03-02T06:09:53.918Z,45.28
2024-03-02T06:12:56.817Z,46.60
2024-03-02T06:15:59.817Z,42.13
2024-03-02T06:19:03.582Z,46.13
2024-03-02T06:22:06.915Z,38.72
2024-03-02T06:25:09.860Z,42.70
2024-03-02T06:28:12.688Z,44.87
2024-03-02T06:31:15.511Z,49.40
2024-03-02T06:34:18.747Z,44.45
2024-03-02T06:37:21.457Z,44.95
2024-03-02T06:40:24.118Z,44.88
2024-03-02T06:43:26.880Z,46.97
2024-03-02T06:46:29.568Z,41.63
2024-03-02T06:49:32.202Z,43.97
2024-03-02T06:52:34.863Z,44.22
2024-03-02T06:55:37.633Z,42.80
2024-03-02T06:58:40.330Z,37.40
2024-03-02T07:01:44.077Z,41.95
2024-03-02T07:04:47.062Z,41.75
2024-03-02T07:07:49.798Z,40.92
2024-03-02T07:10:52.466Z,46.92
2024-03-02T07:13:55.208Z,49.37
2024-03-02T07:16:57.951Z,50.85
2024-03-02T07:20:00.955Z,60.75
2024-03-02T07:23:03.814Z,60.97
2024-03-02T07:29:13.301Z,62.30
2024-03-02T07:32:16.209Z,50.40
2024-03-02T07:35:19.422Z,51.72
2024-03-02T07:38:23.199Z,51.38
2024-03-02T07:41:26.652Z,49.78
2024-03-02T07:44:29.366Z,52.37
2024-03-02T07:47:32.137Z,53.30
2024-03-02T07:50:36.281Z,56.35
2024-03-02T07:53:38.964Z,60.42
2024-03-02T07:56:41.696Z,58.65
2024-03-02T07:59:44.698Z,55.50
2024-03-02T08:02:47.627Z,63.63
2024-03-02T08:05:50.300Z,48.97
2024-03-02T08:08:52.997Z,53.58
2024-03-02T08:11:56.006Z,51.47
2024-03-02T08:14:58.766Z,55.67
2024-03-02T08:18:01.568Z,51.40
2024-03-02T08:21:04.578Z,48.70
2024-03-02T08:24:08.002Z,47.90
2024-03-02T08:27:10.721Z,49.03
2024-03-02T08:30:14.180Z,52.13
2024-03-02T08:33:17.062Z,45.92
2024-03-02T08:36:20.852Z,47.22
2024-03-02T08:39:23.778Z,52.10
2024-03-02T08:42:26.921Z,47.92
2024-03-02T08:45:30.015Z,52.50
2024-03-02T08:48:32.846Z,55.17
2024-03-02T08:51:35.739Z,61.78
2024-03-02T08:54:41.709Z,59.33
2024-03-02T08:57:44.721Z,56.08
2024-03-02T09:00:48.709Z,52.70
2024-03-02T09:03:51.867Z,52.75
2024-03-02T09:06:54.674Z,46.40
2024-03-02T09:09:57.678Z,47.15
2024-03-02T09:13:01.310Z,45.15
2024-03-02T09:16:05.414Z,44.93
2024-03-02T09:19:08.809Z,45.15
2024-03-02T09:22:11.574Z,43.72
2024-03-02T09:25:14.604Z,58.63
2024-03-02T09:28:17.636Z,47.13
2024-03-02T09:31:20.776Z,49.50
2024-03-02T09:34:23.924Z,59.25
2024-03-02T09:37:28.000Z,48.92
2024-03-02T09:40:31.018Z,40.30
2024-03-02T09:43:34.033Z,42.42
2024-03-02T09:46:37.761Z,43.90
2024-03-02T09:49:41.363Z,38.70
2024-03-02T09:52:44.671Z,42.97
2024-03-02T09:55:48.361Z,49.63
2024-03-02T09:58:51.410Z,41.75
2024-03-02T10:02:02.354Z,46.43
2024-03-02T10:05:05.582Z,41.53
2024-03-02T10:08:08.522Z,45.97
2024-03-02T10:11:12.195Z,47.22
2024-03-02T10:14:15.235Z,47.05
2024-03-02T10:17:19.444Z,44.90
2024-03-02T10:20:26.656Z,43.03
2024-03-02T10:23:29.373Z,46.35
2024-03-02T10:26:32.244Z,46.90
2024-03-02T10:29:34.973Z,47.53
2024-03-02T10:32:39.189Z,50.20
2024-03-02T10:35:42.281Z,44.53
2024-03-02T10:38:46.643Z,46.33
2024-03-02T10:41:53.350Z,44.22
2024-03-02T10:44:56.740Z,47.25
2024-03-02T10:48:02.037Z,43.43
2024-03-02T10:51:05.734Z,42.72
2024-03-02T10:54:08.417Z,49.55
2024-03-02T10:57:13.736Z,45.75
2024-03-02T11:00:16.694Z,46.35
2024-03-02T11:03:20.107Z,47.67
2024-03-02T11:06:24.050Z,48.97
2024-03-02T11:09:29.960Z,45.90
2024-03-02T11:13:08.194Z,46.22
2024-03-02T11:16:23.605Z,42.65
2024-03-02T11:19:27.485Z,46.13
2024-03-02T11:22:31.164Z,47.05
2024-03-02T11:25:34.133Z,44.03
2024-03-02T11:28:38.174Z,42.63
2024-03-02T11:32:01.767Z,41.63
2024-03-02T11:35:04.940Z,39.87
2024-03-02T11:38:08.486Z,39.33
2024-03-02T11:41:12.493Z,46.15
2024-03-02T11:44:16.335Z,40.67
2024-03-02T11:47:19.399Z,37.90
2024-03-02T11:50:41.443Z,41.13
2024-03-02T11:53:47.419Z,41.72
2024-03-02T11:56:50.166Z,41.92
2024-03-02T11:59:53.305Z,37.15
2024-03-02T12:03:03.312Z,42.15
2024-03-02T12:06:06.322Z,38.07
2024-03-02T12:09:12.901Z,35.92
2024-03-02T12:12:22.205Z,35.25
2024-03-02T12:15:29.286Z,33.60
2024-03-02T12:18:32.142Z,35.05
2024-03-02T12:21:34.961Z,35.77
2024-03-02T12:24:38.660Z,38.15
2024-03-02T12:27:42.007Z,38.88
2024-03-02T12:30:44.935Z,38.08
2024-03-02T12:33:48.029Z,38.75
2024-03-02T12:36:54.167Z,42.27
2024-03-02T12:39:57.179Z,37.78
2024-03-02T12:43:00.211Z,37.25
2024-03-02T12:46:03.505Z,37.75
2024-03-02T12:49:11.182Z,36.58
2024-03-02T12:52:14.720Z,31.53
2024-03-02T12:55:17.951Z,33.97
2024-03-02T12:58:24.329Z,28.50
2024-03-02T13:01:27.552Z,30.92
2024-03-02T13:04:32.176Z,29.67
2024-03-02T13:07:35.542Z,28.53
2024-03-02T13:10:39.275Z,29.52
2024-03-02T13:13:42.278Z,35.28
2024-03-02T13:16:47.878Z,31.98
2024-03-02T13:19:55.320Z,28.77
2024-03-02T13:22:58.556Z,30.40
2024-03-02T13:26:01.354Z,32.10
2024-03-02T13:29:04.187Z,30.65
2024-03-02T13:32:07.149Z,30.77
2024-03-02T13:35:12.482Z,29.30
2024-03-02T13:38:15.353Z,25.17
2024-03-02T13:41:18.051Z,23.38
2024-03-02T13:44:21.139Z,21.67
2024-03-02T13:47:24.045Z,27.33
2024-03-02T13:50:27.002Z,23.50
2024-03-02T13:53:29.981Z,17.27
2024-03-02T13:56:33.877Z,26.25
2024-03-02T13:59:37.274Z,22.30
2024-03-02T14:02:41.091Z,18.45
2024-03-02T14:05:44.742Z,19.10
2024-03-02T14:08:49.460Z,21.53
2024-03-02T14:11:53.000Z,21.40
2024-03-02T14:14:59.347Z,17.05
2024-03-02T14:18:02.222Z,20.85
2024-03-02T14:21:05.856Z,17.50
2024-03-02T14:24:08.702Z,18.80
2024-03-02T14:27:20.459Z,21.80
2024-03-02T14:30:31.333Z,16.80
2024-03-02T14:33:34.256Z,15.90
2024-03-02T14:36:37.214Z,16.40
2024-03-02T14:39:40.752Z,18.83
2024-03-02T14:42:45.320Z,16.95
2024-03-02T14:45:48.255Z,18.15
2024-03-02T14:48:51.419Z,14.98
2024-03-02T14:51:54.509Z,26.17
2024-03-02T14:54:57.353Z,17.10
2024-03-02T14:58:00.154Z,20.65
2024-03-02T15:01:03.231Z,18.55
2024-03-02T15:04:06.737Z,17.55
2024-03-02T15:07:09.669Z,19.35
2024-03-02T15:10:12.591Z,16.73
2024-03-02T15:13:15.687Z,17.52
2024-03-02T15:16:18.552Z,17.58
2024-03-02T15:19:21.465Z,20.40
2024-03-02T15:22:24.164Z,20.98
2024-03-02T15:25:26.883Z,21.83
2024-03-02T15:28:29.637Z,25.88
2024-03-02T15:31:32.685Z,22.52
2024-03-02T15:34:35.585Z,24.50
2024-03-02T15:37:38.393Z,25.52
2024-03-02T15:40:41.271Z,21.87
2024-03-02T15:43:44.277Z,20.58
2024-03-02T15:46:47.311Z,19.13
2024-03-02T15:49:51.049Z,21.73
2024-03-02T15:52:53.806Z,25.63
2024-03-02T15:55:56.518Z,24.03
2024-03-02T15:58:59.675Z,23.52
2024-03-02T16:02:02.630Z,21.45
2024-03-02T16:05:05.797Z,28.70
2024-03-02T16:08:08.681Z,25.15
2024-03-02T16:11:11.517Z,27.53
2024-03-02T16:14:17.512Z,28.55
2024-03-02T16:17:20.621Z,31.25
2024-03-02T16:20:23.443Z,39.38
2024-03-02T16:23:26.156Z,35.13
2024-03-02T16:26:29.062Z,33.47
2024-03-02T16:29:31.875Z,33.95
2024-03-02T16:32:37.660Z,32.00
2024-03-02T16:35:40.405Z,35.10
2024-03-02T16:38:45.001Z,34.97
2024-03-02T16:41:48.284Z,38.33
2024-03-02T16:44:55.851Z,37.33
2024-03-02T16:47:59.083Z,39.67
2024-03-02T16:51:01.991Z,38.20
2024-03-02T16:54:05.261Z,38.20
2024-03-02T16:57:08.428Z,38.90
2024-03-02T17:00:12.156Z,38.55
2024-03-02T17:03:15.081Z,37.90
2024-03-02T17:06:17.726Z,34.72
2024-03-02T17:09:20.356Z,38.65
2024-03-02T17:12:23.047Z,37.60
2024-03-02T17:15:25.719Z,38.40
2024-03-02T17:18:29.195Z,37.25
2024-03-02T17:21:32.480Z,40.33
2024-03-02T17:24:35.201Z,44.58
2024-03-02T17:27:37.906Z,44.13
2024-03-02T17:30:40.650Z,44.78
2024-03-02T17:33:43.640Z,43.75
2024-03-02T17:36:46.420Z,41.35
2024-03-02T17:39:49.329Z,42.13
2024-03-02T17:42:52.358Z,43.00
2024-03-02T17:45:55.344Z,43.08
2024-03-02T17:48:58.533Z,39.38
2024-03-02T17:52:01.759Z,40.58
2024-03-02T17:55:06.029Z,40.05
2024-03-02T17:58:09.077Z,45.27
2024-03-02T18:01:13.168Z,41.25
2024-03-02T18:04:16.313Z,40.70
2024-03-02T18:07:19.142Z,37.45
2024-03-02T18:10:21.923Z,40.60
2024-03-02T18:13:25.135Z,40.80
2024-03-02T18:16:28.361Z,36.67
2024-03-02T18:19:32.874Z,41.13
2024-03-02T18:22:36.362Z,42.20
2024-03-02T18:25:39.939Z,57.92
2024-03-02T18:28:43.023Z,68.00
2024-03-02T18:31:45.810Z,74.47
2024-03-02T18:34:48.755Z,67.97
2024-03-02T18:37:51.858Z,69.47
2024-03-02T18:40:58.883Z,66.60
2024-03-02T18:44:01.666Z,67.90
2024-03-02T18:47:08.105Z,68.93
2024-03-02T18:50:11.682Z,72.28
2024-03-02T18:53:15.163Z,73.30
2024-03-02T18:56:17.980Z,74.47
2024-03-02T18:59:20.908Z,71.50
2024-03-02T19:02:23.809Z,64.93
2024-03-02T19:05:27.286Z,76.25
2024-03-02T19:08:31.712Z,67.82
2024-03-02T19:11:37.550Z,68.15
2024-03-02T19:14:40.487Z,67.23
2024-03-02T19:17:46.628Z,73.70
2024-03-02T19:20:49.486Z,67.88
2024-03-02T19:23:52.599Z,64.13
2024-03-02T19:26:55.461Z,59.05
2024-03-02T19:29:58.775Z,64.83
2024-03-02T19:33:01.611Z,61.58
2024-03-02T19:36:05.558Z,53.88
2024-03-02T19:39:09.922Z,55.30
2024-03-02T19:42:13.017Z,56.38
2024-03-02T19:45:16.047Z,54.17
2024-03-02T19:48:19.187Z,49.95
2024-03-02T19:51:22.181Z,44.90
2024-03-02T19:54:25.074Z,39.60
2024-03-02T19:57:30.472Z,47.92
2024-03-02T20:00:33.589Z,51.60
2024-03-02T20:03:36.725Z,60.55
2024-03-02T20:06:39.880Z,63.85
2024-03-02T20:09:42.951Z,50.92
2024-03-02T20:12:45.776Z,71.40
2024-03-02T20:15:48.930Z,53.57
2024-03-02T20:18:52.391Z,50.67
2024-03-02T20:21:55.082Z,46.33
2024-03-02T20:24:58.168Z,41.67
2024-03-02T20:28:01.368Z,45.53
2024-03-02T20:31:04.675Z,48.43
2024-03-02T20:34:07.919Z,43.72
2024-03-02T20:37:10.719Z,42.67
2024-03-02T20:40:16.305Z,42.38
2024-03-02T20:43:19.234Z,46.35
2024-03-02T20:46:22.003Z,37.90
2024-03-02T20:49:25.171Z,37.92
2024-03-02T20:52:28.208Z,43.78
2024-03-02T20:55:31.212Z,36.38
2024-03-02T20:58:33.877Z,39.22
2024-03-02T21:01:38.313Z,48.30
2024-03-02T21:04:43.294Z,47.42
2024-03-02T21:07:46.290Z,50.75
2024-03-02T21:10:50.102Z,47.75
2024-03-02T21:13:53.009Z,50.63
2024-03-02T21:16:56.031Z,48.93
2024-03-02T21:19:59.031Z,51.20
2024-03-02T21:23:01.888Z,60.13
2024-03-02T21:26:05.042Z,65.32
2024-03-02T21:29:09.013Z,71.95
2024-03-02T21:32:11.783Z,85.20
2024-03-02T21:35:16.163Z,97.20
2024-03-02T21:38:19.181Z,72.93
2024-03-02T21:41:21.962Z,68.88
2024-03-02T21:44:24.897Z,61.53
2024-03-02T21:47:27.805Z,56.03
2024-03-02T21:50:31.797Z,57.22
2024-03-02T21:53:34.737Z,61.55
2024-03-02T21:56:37.667Z,51.58
2024-03-02T21:59:40.530Z,49.28
2024-03-02T22:02:43.262Z,53.40
2024-03-02T22:05:45.909Z,66.90
2024-03-02T22:08:48.641Z,70.32
2024-03-02T22:11:51.509Z,72.05
2024-03-02T22:14:54.280Z,65.63
2024-03-02T22:17:57.042Z,62.23
2024-03-02T22:20:59.933Z,62.33
2024-03-02T22:24:02.697Z,63.33
2024-03-02T22:27:05.630Z,66.88
2024-03-02T22:30:08.757Z,70.60
2024-03-02T22:33:11.850Z,62.57
2024-03-02T22:36:14.719Z,50.88
2024-03-02T22:39:17.774Z,53.28
2024-03-02T22:42:20.474Z,46.78
2024-03-02T22:45:23.142Z,39.10
2024-03-02T22:48:25.884Z,41.03
2024-03-02T22:51:28.783Z,36.13
2024-03-02T22:54:31.637Z,35.65
2024-03-02T22:57:34.498Z,38.65
2024-03-02T23:00:49.020Z,35.65
2024-03-02T23:03:52.405Z,42.53
2024-03-02T23:06:55.163Z,38.22
2024-03-02T23:09:57.996Z,34.92
2024-03-02T23:13:00.963Z,33.80
2024-03-02T23:16:04.543Z,41.30
2024-03-02T23:19:07.428Z,40.40
2024-03-02T23:22:11.566Z,40.63
2024-03-02T23:25:15.890Z,33.40
2024-03-02T23:28:18.753Z,35.42
2024-03-02T23:31:21.676Z,36.10
2024-03-02T23:34:24.571Z,32.90
2024-03-02T23:37:29.193Z,32.80
2024-03-02T23:40:57.405Z,30.60
2024-03-02T23:44:02.416Z,39.00
2024-03-02T23:47:07.021Z,36.00
2024-03-02T23:50:10.282Z,40.40
2024-03-02T23:53:13.178Z,36.22
2024-03-02T23:56:16.004Z,34.90
2024-03-02T23:59:18.833Z,34.33
